sensor_id;sensor_type;location;lat;lon;timestamp;temperature;humidity
35497;DHT22;21609;49.298;6.844;2023-04-24T00:01:41;19.10;52.00
35497;DHT22;21609;49.298;6.844;2023-04-24T00:04:08;19.10;52.00
35497;DHT22;21609;49.298;6.844;2023-04-24T00:06:38;19.10;52.00
35497;DHT22;21609;49.298;6.844;2023-04-24T00:09:08;19.10;52.00
35497;DHT22;21609;49.298;6.844;2023-04-24T00:11:35;19.10;52.00
35497;DHT22;21609;49.298;6.844;2023-04-24T00:14:02;19.10;52.10
35497;DHT22;21609;49.298;6.844;2023-04-24T00:16:27;19.10;52.10
35497;DHT22;21609;49.298;6.844;2023-04-24T00:18:53;19.00;52.00
35497;DHT22;21609;49.298;6.844;2023-04-24T00:21:19;19.10;52.10
35497;DHT22;21609;49.298;6.844;2023-04-24T00:23:45;19.10;52.10
35497;DHT22;21609;49.298;6.844;2023-04-24T00:26:11;19.10;52.10
35497;DHT22;21609;49.298;6.844;2023-04-24T00:28:37;19.10;52.10
35497;DHT22;21609;49.298;6.844;2023-04-24T00:31:02;19.00;52.10
35497;DHT22;21609;49.298;6.844;2023-04-24T00:33:28;19.10;52.10
35497;DHT22;21609;49.298;6.844;2023-04-24T00:35:53;19.00;52.10
35497;DHT22;21609;49.298;6.844;2023-04-24T00:38:19;19.00;52.10
35497;DHT22;21609;49.298;6.844;2023-04-24T00:40:45;19.00;52.10
35497;DHT22;21609;49.298;6.844;2023-04-24T00:43:11;19.00;52.10
35497;DHT22;21609;49.298;6.844;2023-04-24T00:45:37;19.00;52.10
35497;DHT22;21609;49.298;6.844;2023-04-24T00:48:02;19.00;52.10
35497;DHT22;21609;49.298;6.844;2023-04-24T00:50:29;19.00;52.10
35497;DHT22;21609;49.298;6.844;2023-04-24T00:52:56;19.00;52.10
35497;DHT22;21609;49.298;6.844;2023-04-24T00:55:21;19.00;52.10
35497;DHT22;21609;49.298;6.844;2023-04-24T00:57:48;19.00;52.10
35497;DHT22;21609;49.298;6.844;2023-04-24T01:00:15;19.00;52.10
35497;DHT22;21609;49.298;6.844;2023-04-24T01:02:43;18.90;52.10
35497;DHT22;21609;49.298;6.844;2023-04-24T01:05:14;19.00;52.10
35497;DHT22;21609;49.298;6.844;2023-04-24T01:07:41;19.00;52.10
35497;DHT22;21609;49.298;6.844;2023-04-24T01:10:11;19.00;52.20
35497;DHT22;21609;49.298;6.844;2023-04-24T01:12:37;18.90;52.10
35497;DHT22;21609;49.298;6.844;2023-04-24T01:15:03;18.90;52.10
35497;DHT22;21609;49.298;6.844;2023-04-24T01:17:29;18.90;52.10
35497;DHT22;21609;49.298;6.844;2023-04-24T01:19:55;18.90;52.10
35497;DHT22;21609;49.298;6.844;2023-04-24T01:22:22;18.90;52.10
35497;DHT22;21609;49.298;6.844;2023-04-24T01:24:48;18.90;52.10
35497;DHT22;21609;49.298;6.844;2023-04-24T01:27:14;18.90;52.10
35497;DHT22;21609;49.298;6.844;2023-04-24T01:29:40;18.90;52.10
35497;DHT22;21609;49.298;6.844;2023-04-24T01:32:06;18.90;52.10
35497;DHT22;21609;49.298;6.844;2023-04-24T01:34:32;18.90;52.20
35497;DHT22;21609;49.298;6.844;2023-04-24T01:36:58;18.90;52.10
35497;DHT22;21609;49.298;6.844;2023-04-24T01:39:23;18.90;52.20
35497;DHT22;21609;49.298;6.844;2023-04-24T01:41:51;18.90;52.20
35497;DHT22;21609;49.298;6.844;2023-04-24T01:44:17;18.90;52.20
35497;DHT22;21609;49.298;6.844;2023-04-24T01:46:43;18.90;52.20
35497;DHT22;21609;49.298;6.844;2023-04-24T01:49:08;18.90;52.20
35497;DHT22;21609;49.298;6.844;2023-04-24T01:51:34;18.90;52.20
35497;DHT22;21609;49.298;6.844;2023-04-24T01:54:00;18.90;52.20
35497;DHT22;21609;49.298;6.844;2023-04-24T01:56:29;18.90;52.20
35497;DHT22;21609;49.298;6.844;2023-04-24T01:58:55;18.80;52.20
35497;DHT22;21609;49.298;6.844;2023-04-24T02:01:23;18.80;52.20
35497;DHT22;21609;49.298;6.844;2023-04-24T02:03:49;18.80;52.20
35497;DHT22;21609;49.298;6.844;2023-04-24T02:06:15;18.80;52.20
35497;DHT22;21609;49.298;6.844;2023-04-24T02:08:40;18.80;52.20
35497;DHT22;21609;49.298;6.844;2023-04-24T02:11:06;18.80;52.20
35497;DHT22;21609;49.298;6.844;2023-04-24T02:13:31;18.80;52.20
35497;DHT22;21609;49.298;6.844;2023-04-24T02:15:58;18.80;52.20
35497;DHT22;21609;49.298;6.844;2023-04-24T02:18:24;18.80;52.20
35497;DHT22;21609;49.298;6.844;2023-04-24T02:20:50;18.80;52.30
35497;DHT22;21609;49.298;6.844;2023-04-24T02:23:15;18.80;52.30
35497;DHT22;21609;49.298;6.844;2023-04-24T02:25:41;18.80;52.30
35497;DHT22;21609;49.298;6.844;2023-04-24T02:28:06;18.80;52.20
35497;DHT22;21609;49.298;6.844;2023-04-24T02:30:32;18.70;52.20
35497;DHT22;21609;49.298;6.844;2023-04-24T02:32:57;18.80;52.30
35497;DHT22;21609;49.298;6.844;2023-04-24T02:35:23;18.70;52.30
35497;DHT22;21609;49.298;6.844;2023-04-24T02:37:48;18.80;52.30
35497;DHT22;21609;49.298;6.844;2023-04-24T02:40:14;18.80;52.30
35497;DHT22;21609;49.298;6.844;2023-04-24T02:42:40;18.70;52.30
35497;DHT22;21609;49.298;6.844;2023-04-24T02:45:06;18.70;52.30
35497;DHT22;21609;49.298;6.844;2023-04-24T02:47:31;18.70;52.30
35497;DHT22;21609;49.298;6.844;2023-04-24T02:49:57;18.70;52.30
35497;DHT22;21609;49.298;6.844;2023-04-24T02:52:22;18.70;52.30
35497;DHT22;21609;49.298;6.844;2023-04-24T02:54:48;18.70;52.30
35497;DHT22;21609;49.298;6.844;2023-04-24T02:57:13;18.70;52.30
35497;DHT22;21609;49.298;6.844;2023-04-24T02:59:40;18.70;52.30
35497;DHT22;21609;49.298;6.844;2023-04-24T03:02:05;18.70;52.30
35497;DHT22;21609;49.298;6.844;2023-04-24T03:04:31;18.70;52.40
35497;DHT22;21609;49.298;6.844;2023-04-24T03:06:57;18.60;52.30
35497;DHT22;21609;49.298;6.844;2023-04-24T03:09:23;18.70;52.30
35497;DHT22;21609;49.298;6.844;2023-04-24T03:11:49;18.60;52.30
35497;DHT22;21609;49.298;6.844;2023-04-24T03:14:15;18.60;52.40
35497;DHT22;21609;49.298;6.844;2023-04-24T03:16:41;18.60;52.40
35497;DHT22;21609;49.298;6.844;2023-04-24T03:19:07;18.60;52.30
35497;DHT22;21609;49.298;6.844;2023-04-24T03:21:32;18.60;52.40
35497;DHT22;21609;49.298;6.844;2023-04-24T03:23:58;18.60;52.40
35497;DHT22;21609;49.298;6.844;2023-04-24T03:26:24;18.60;52.40
35497;DHT22;21609;49.298;6.844;2023-04-24T03:28:50;18.60;52.40
35497;DHT22;21609;49.298;6.844;2023-04-24T03:31:15;18.60;52.40
35497;DHT22;21609;49.298;6.844;2023-04-24T03:33:42;18.60;52.40
35497;DHT22;21609;49.298;6.844;2023-04-24T03:36:07;18.60;52.40
35497;DHT22;21609;49.298;6.844;2023-04-24T03:38:33;18.60;52.40
35497;DHT22;21609;49.298;6.844;2023-04-24T03:40:58;18.60;52.40
35497;DHT22;21609;49.298;6.844;2023-04-24T03:43:24;18.60;52.40
35497;DHT22;21609;49.298;6.844;2023-04-24T03:45:49;18.60;52.40
35497;DHT22;21609;49.298;6.844;2023-04-24T03:48:15;18.60;52.40
35497;DHT22;21609;49.298;6.844;2023-04-24T03:50:40;18.60;52.40
35497;DHT22;21609;49.298;6.844;2023-04-24T03:53:06;18.60;52.40
35497;DHT22;21609;49.298;6.844;2023-04-24T03:55:31;18.50;52.40
35497;DHT22;21609;49.298;6.844;2023-04-24T03:57:57;18.60;52.50
35497;DHT22;21609;49.298;6.844;2023-04-24T04:00:22;18.50;52.40
35497;DHT22;21609;49.298;6.844;2023-04-24T04:02:48;18.50;52.40
35497;DHT22;21609;49.298;6.844;2023-04-24T04:05:14;18.50;52.40
35497;DHT22;21609;49.298;6.844;2023-04-24T04:07:39;18.50;52.40
35497;DHT22;21609;49.298;6.844;2023-04-24T04:10:05;18.50;52.40
35497;DHT22;21609;49.298;6.844;2023-04-24T04:12:32;18.50;52.40
35497;DHT22;21609;49.298;6.844;2023-04-24T04:14:58;18.50;52.40
35497;DHT22;21609;49.298;6.844;2023-04-24T04:17:23;18.50;52.40
35497;DHT22;21609;49.298;6.844;2023-04-24T04:19:49;18.50;52.40
35497;DHT22;21609;49.298;6.844;2023-04-24T04:22:14;18.50;52.40
35497;DHT22;21609;49.298;6.844;2023-04-24T04:24:40;18.50;52.40
35497;DHT22;21609;49.298;6.844;2023-04-24T04:27:06;18.50;52.50
35497;DHT22;21609;49.298;6.844;2023-04-24T04:29:32;18.50;52.50
35497;DHT22;21609;49.298;6.844;2023-04-24T04:31:58;18.50;52.50
35497;DHT22;21609;49.298;6.844;2023-04-24T04:34:24;18.50;52.50
35497;DHT22;21609;49.298;6.844;2023-04-24T04:36:49;18.40;52.40
35497;DHT22;21609;49.298;6.844;2023-04-24T04:39:15;18.50;52.50
35497;DHT22;21609;49.298;6.844;2023-04-24T04:41:41;18.40;52.50
35497;DHT22;21609;49.298;6.844;2023-04-24T04:44:07;18.40;52.40
35497;DHT22;21609;49.298;6.844;2023-04-24T04:46:34;18.40;52.50
35497;DHT22;21609;49.298;6.844;2023-04-24T04:49:00;18.40;52.50
35497;DHT22;21609;49.298;6.844;2023-04-24T04:51:26;18.40;52.50
35497;DHT22;21609;49.298;6.844;2023-04-24T04:53:52;18.40;52.50
35497;DHT22;21609;49.298;6.844;2023-04-24T04:56:18;18.40;52.50
35497;DHT22;21609;49.298;6.844;2023-04-24T04:58:43;18.40;52.50
35497;DHT22;21609;49.298;6.844;2023-04-24T05:01:09;18.40;52.50
35497;DHT22;21609;49.298;6.844;2023-04-24T05:03:35;18.40;52.50
35497;DHT22;21609;49.298;6.844;2023-04-24T05:06:01;18.40;52.50
35497;DHT22;21609;49.298;6.844;2023-04-24T05:08:27;18.40;52.50
35497;DHT22;21609;49.298;6.844;2023-04-24T05:10:53;18.40;52.50
35497;DHT22;21609;49.298;6.844;2023-04-24T05:13:19;18.40;52.50
35497;DHT22;21609;49.298;6.844;2023-04-24T05:15:44;18.40;52.50
35497;DHT22;21609;49.298;6.844;2023-04-24T05:18:10;18.40;52.60
35497;DHT22;21609;49.298;6.844;2023-04-24T05:20:36;18.40;52.50
35497;DHT22;21609;49.298;6.844;2023-04-24T05:23:01;18.40;52.50
35497;DHT22;21609;49.298;6.844;2023-04-24T05:25:27;18.40;52.50
35497;DHT22;21609;49.298;6.844;2023-04-24T05:27:52;18.40;52.60
35497;DHT22;21609;49.298;6.844;2023-04-24T05:30:19;18.40;53.20
35497;DHT22;21609;49.298;6.844;2023-04-24T05:32:45;18.40;52.60
35497;DHT22;21609;49.298;6.844;2023-04-24T05:35:11;18.30;52.30
35497;DHT22;21609;49.298;6.844;2023-04-24T05:37:37;18.30;52.50
35497;DHT22;21609;49.298;6.844;2023-04-24T05:40:03;18.30;52.70
35497;DHT22;21609;49.298;6.844;2023-04-24T05:42:30;18.30;52.60
35497;DHT22;21609;49.298;6.844;2023-04-24T05:44:56;18.30;52.60
35497;DHT22;21609;49.298;6.844;2023-04-24T05:47:22;18.30;52.50
35497;DHT22;21609;49.298;6.844;2023-04-24T05:49:47;18.30;52.50
35497;DHT22;21609;49.298;6.844;2023-04-24T05:52:13;18.30;52.60
35497;DHT22;21609;49.298;6.844;2023-04-24T05:54:39;18.30;52.50
35497;DHT22;21609;49.298;6.844;2023-04-24T05:57:04;18.30;52.50
35497;DHT22;21609;49.298;6.844;2023-04-24T05:59:33;18.30;52.50
35497;DHT22;21609;49.298;6.844;2023-04-24T06:01:59;18.30;52.50
35497;DHT22;21609;49.298;6.844;2023-04-24T06:04:25;18.30;52.50
35497;DHT22;21609;49.298;6.844;2023-04-24T06:06:51;18.30;52.50
35497;DHT22;21609;49.298;6.844;2023-04-24T06:09:24;18.30;52.50
35497;DHT22;21609;49.298;6.844;2023-04-24T06:11:50;18.30;52.50
35497;DHT22;21609;49.298;6.844;2023-04-24T06:14:18;18.30;52.50
35497;DHT22;21609;49.298;6.844;2023-04-24T06:16:43;18.30;52.50
35497;DHT22;21609;49.298;6.844;2023-04-24T06:19:09;18.30;52.50
35497;DHT22;21609;49.298;6.844;2023-04-24T06:21:35;18.30;52.60
35497;DHT22;21609;49.298;6.844;2023-04-24T06:24:00;18.30;52.50
35497;DHT22;21609;49.298;6.844;2023-04-24T06:26:26;18.30;52.60
35497;DHT22;21609;49.298;6.844;2023-04-24T06:28:52;18.30;52.50
35497;DHT22;21609;49.298;6.844;2023-04-24T06:31:19;18.30;52.50
35497;DHT22;21609;49.298;6.844;2023-04-24T06:33:45;18.20;52.50
35497;DHT22;21609;49.298;6.844;2023-04-24T06:36:12;18.20;52.50
35497;DHT22;21609;49.298;6.844;2023-04-24T06:38:38;18.20;52.50
35497;DHT22;21609;49.298;6.844;2023-04-24T06:41:03;18.20;52.60
35497;DHT22;21609;49.298;6.844;2023-04-24T06:43:33;18.20;52.50
35497;DHT22;21609;49.298;6.844;2023-04-24T06:45:59;18.20;52.60
35497;DHT22;21609;49.298;6.844;2023-04-24T06:48:25;18.20;52.50
35497;DHT22;21609;49.298;6.844;2023-04-24T06:50:51;18.20;52.60
35497;DHT22;21609;49.298;6.844;2023-04-24T06:53:17;18.20;52.50
35497;DHT22;21609;49.298;6.844;2023-04-24T06:55:43;18.20;52.50
35497;DHT22;21609;49.298;6.844;2023-04-24T06:58:11;18.20;52.50
35497;DHT22;21609;49.298;6.844;2023-04-24T07:00:37;18.20;52.50
35497;DHT22;21609;49.298;6.844;2023-04-24T07:03:03;18.20;52.50
35497;DHT22;21609;49.298;6.844;2023-04-24T07:05:30;18.20;52.50
35497;DHT22;21609;49.298;6.844;2023-04-24T07:07:56;18.10;52.50
35497;DHT22;21609;49.298;6.844;2023-04-24T07:10:23;18.10;52.50
35497;DHT22;21609;49.298;6.844;2023-04-24T07:12:49;18.10;52.50
35497;DHT22;21609;49.298;6.844;2023-04-24T07:15:15;18.10;52.50
35497;DHT22;21609;49.298;6.844;2023-04-24T07:17:42;18.10;52.60
35497;DHT22;21609;49.298;6.844;2023-04-24T07:20:11;18.20;52.60
35497;DHT22;21609;49.298;6.844;2023-04-24T07:22:39;18.10;52.60
35497;DHT22;21609;49.298;6.844;2023-04-24T07:25:06;18.10;52.50
35497;DHT22;21609;49.298;6.844;2023-04-24T07:27:32;18.10;52.50
35497;DHT22;21609;49.298;6.844;2023-04-24T07:29:57;18.20;52.60
35497;DHT22;21609;49.298;6.844;2023-04-24T07:32:23;18.10;52.50
35497;DHT22;21609;49.298;6.844;2023-04-24T07:34:48;18.10;52.50
35497;DHT22;21609;49.298;6.844;2023-04-24T07:37:14;18.10;52.70
35497;DHT22;21609;49.298;6.844;2023-04-24T07:39:40;18.10;52.50
35497;DHT22;21609;49.298;6.844;2023-04-24T07:42:05;18.10;52.60
35497;DHT22;21609;49.298;6.844;2023-04-24T07:44:31;18.10;52.50
35497;DHT22;21609;49.298;6.844;2023-04-24T07:46:57;18.10;52.50
35497;DHT22;21609;49.298;6.844;2023-04-24T07:49:23;18.10;52.50
35497;DHT22;21609;49.298;6.844;2023-04-24T07:51:49;18.10;52.60
35497;DHT22;21609;49.298;6.844;2023-04-24T07:54:15;18.10;52.50
35497;DHT22;21609;49.298;6.844;2023-04-24T07:56:41;18.10;52.50
35497;DHT22;21609;49.298;6.844;2023-04-24T07:59:08;18.10;52.50
35497;DHT22;21609;49.298;6.844;2023-04-24T08:01:35;18.10;52.50
35497;DHT22;21609;49.298;6.844;2023-04-24T08:04:01;18.10;52.50
35497;DHT22;21609;49.298;6.844;2023-04-24T08:06:27;18.10;52.50
35497;DHT22;21609;49.298;6.844;2023-04-24T08:08:57;18.10;52.60
35497;DHT22;21609;49.298;6.844;2023-04-24T08:11:23;18.10;52.60
35497;DHT22;21609;49.298;6.844;2023-04-24T08:13:48;18.00;52.60
35497;DHT22;21609;49.298;6.844;2023-04-24T08:16:14;18.10;52.60
35497;DHT22;21609;49.298;6.844;2023-04-24T08:18:40;18.10;52.60
35497;DHT22;21609;49.298;6.844;2023-04-24T08:21:05;18.00;52.60
35497;DHT22;21609;49.298;6.844;2023-04-24T08:23:31;18.00;52.60
35497;DHT22;21609;49.298;6.844;2023-04-24T08:25:56;18.10;52.60
35497;DHT22;21609;49.298;6.844;2023-04-24T08:28:23;18.00;52.60
35497;DHT22;21609;49.298;6.844;2023-04-24T08:30:49;18.00;52.60
35497;DHT22;21609;49.298;6.844;2023-04-24T08:33:21;18.00;52.60
35497;DHT22;21609;49.298;6.844;2023-04-24T08:35:47;18.00;52.70
35497;DHT22;21609;49.298;6.844;2023-04-24T08:38:13;18.10;52.60
35497;DHT22;21609;49.298;6.844;2023-04-24T08:40:38;18.10;52.80
35497;DHT22;21609;49.298;6.844;2023-04-24T08:43:05;18.10;52.70
35497;DHT22;21609;49.298;6.844;2023-04-24T08:45:30;18.00;52.70
35497;DHT22;21609;49.298;6.844;2023-04-24T08:47:58;18.10;52.80
35497;DHT22;21609;49.298;6.844;2023-04-24T08:50:24;18.00;52.80
35497;DHT22;21609;49.298;6.844;2023-04-24T08:52:51;18.00;52.80
35497;DHT22;21609;49.298;6.844;2023-04-24T08:55:19;18.00;52.90
35497;DHT22;21609;49.298;6.844;2023-04-24T08:57:49;18.00;52.90
35497;DHT22;21609;49.298;6.844;2023-04-24T09:00:15;18.00;52.90
35497;DHT22;21609;49.298;6.844;2023-04-24T09:02:42;18.00;52.90
35497;DHT22;21609;49.298;6.844;2023-04-24T09:05:09;18.00;52.90
35497;DHT22;21609;49.298;6.844;2023-04-24T09:07:35;18.00;52.90
35497;DHT22;21609;49.298;6.844;2023-04-24T09:10:04;18.00;52.90
35497;DHT22;21609;49.298;6.844;2023-04-24T09:12:30;18.00;52.90
35497;DHT22;21609;49.298;6.844;2023-04-24T09:14:56;18.00;52.90
35497;DHT22;21609;49.298;6.844;2023-04-24T09:17:22;18.00;52.80
35497;DHT22;21609;49.298;6.844;2023-04-24T09:19:48;18.00;52.90
35497;DHT22;21609;49.298;6.844;2023-04-24T09:22:15;18.00;52.90
35497;DHT22;21609;49.298;6.844;2023-04-24T09:24:40;18.00;52.90
35497;DHT22;21609;49.298;6.844;2023-04-24T09:27:07;18.00;52.90
35497;DHT22;21609;49.298;6.844;2023-04-24T09:29:32;17.90;52.90
35497;DHT22;21609;49.298;6.844;2023-04-24T09:31:58;18.00;52.90
35497;DHT22;21609;49.298;6.844;2023-04-24T09:34:26;18.00;52.90
35497;DHT22;21609;49.298;6.844;2023-04-24T09:36:52;18.00;52.90
35497;DHT22;21609;49.298;6.844;2023-04-24T09:39:18;18.00;52.90
35497;DHT22;21609;49.298;6.844;2023-04-24T09:41:55;18.00;53.00
35497;DHT22;21609;49.298;6.844;2023-04-24T09:44:24;17.90;53.00
35497;DHT22;21609;49.298;6.844;2023-04-24T09:46:55;18.00;53.00
35497;DHT22;21609;49.298;6.844;2023-04-24T09:49:26;17.90;52.90
35497;DHT22;21609;49.298;6.844;2023-04-24T09:52:02;18.00;53.00
35497;DHT22;21609;49.298;6.844;2023-04-24T09:54:28;17.90;52.90
35497;DHT22;21609;49.298;6.844;2023-04-24T09:56:55;17.90;52.90
35497;DHT22;21609;49.298;6.844;2023-04-24T09:59:22;17.90;52.90
35497;DHT22;21609;49.298;6.844;2023-04-24T10:01:48;17.90;53.00
35497;DHT22;21609;49.298;6.844;2023-04-24T10:04:19;17.90;52.90
35497;DHT22;21609;49.298;6.844;2023-04-24T10:06:46;17.90;53.00
35497;DHT22;21609;49.298;6.844;2023-04-24T10:09:12;17.90;53.30
35497;DHT22;21609;49.298;6.844;2023-04-24T10:11:42;17.90;53.50
35497;DHT22;21609;49.298;6.844;2023-04-24T10:14:10;17.90;53.40
35497;DHT22;21609;49.298;6.844;2023-04-24T10:16:38;17.90;53.40
35497;DHT22;21609;49.298;6.844;2023-04-24T10:19:04;18.00;53.30
35497;DHT22;21609;49.298;6.844;2023-04-24T10:21:30;17.90;53.20
35497;DHT22;21609;49.298;6.844;2023-04-24T10:23:56;18.00;53.20
35497;DHT22;21609;49.298;6.844;2023-04-24T10:26:23;18.00;53.20
35497;DHT22;21609;49.298;6.844;2023-04-24T10:28:49;18.00;53.10
35497;DHT22;21609;49.298;6.844;2023-04-24T10:31:15;18.00;53.30
35497;DHT22;21609;49.298;6.844;2023-04-24T10:33:43;18.00;53.30
35497;DHT22;21609;49.298;6.844;2023-04-24T10:36:11;18.00;53.50
35497;DHT22;21609;49.298;6.844;2023-04-24T10:38:40;18.00;53.50
35497;DHT22;21609;49.298;6.844;2023-04-24T10:41:09;18.00;53.40
35497;DHT22;21609;49.298;6.844;2023-04-24T10:43:35;18.00;53.30
35497;DHT22;21609;49.298;6.844;2023-04-24T10:46:05;18.00;53.30
35497;DHT22;21609;49.298;6.844;2023-04-24T10:48:32;18.00;53.30
35497;DHT22;21609;49.298;6.844;2023-04-24T10:50:58;18.00;53.30
35497;DHT22;21609;49.298;6.844;2023-04-24T10:53:29;18.00;53.20
35497;DHT22;21609;49.298;6.844;2023-04-24T10:56:03;18.00;53.20
35497;DHT22;21609;49.298;6.844;2023-04-24T10:58:50;18.00;53.50
35497;DHT22;21609;49.298;6.844;2023-04-24T11:01:31;18.00;53.90
35497;DHT22;21609;49.298;6.844;2023-04-24T11:04:02;18.00;54.00
35497;DHT22;21609;49.298;6.844;2023-04-24T11:06:33;18.00;54.10
35497;DHT22;21609;49.298;6.844;2023-04-24T11:09:09;18.00;53.70
35497;DHT22;21609;49.298;6.844;2023-04-24T11:11:38;18.00;53.50
35497;DHT22;21609;49.298;6.844;2023-04-24T11:14:07;18.00;53.50
35497;DHT22;21609;49.298;6.844;2023-04-24T11:16:42;18.00;53.50
35497;DHT22;21609;49.298;6.844;2023-04-24T11:21:47;18.00;53.40
35497;DHT22;21609;49.298;6.844;2023-04-24T11:29:22;18.00;53.40
35497;DHT22;21609;49.298;6.844;2023-04-24T11:31:48;18.00;53.30
35497;DHT22;21609;49.298;6.844;2023-04-24T11:34:17;18.00;53.40
35497;DHT22;21609;49.298;6.844;2023-04-24T11:36:44;18.00;53.30
35497;DHT22;21609;49.298;6.844;2023-04-24T11:39:10;18.00;53.30
35497;DHT22;21609;49.298;6.844;2023-04-24T11:41:36;18.00;53.30
35497;DHT22;21609;49.298;6.844;2023-04-24T11:44:03;18.00;53.30
35497;DHT22;21609;49.298;6.844;2023-04-24T11:46:31;18.00;53.30
35497;DHT22;21609;49.298;6.844;2023-04-24T11:48:58;18.00;53.20
35497;DHT22;21609;49.298;6.844;2023-04-24T11:51:25;18.00;53.20
35497;DHT22;21609;49.298;6.844;2023-04-24T11:53:52;18.00;53.30
35497;DHT22;21609;49.298;6.844;2023-04-24T11:56:18;18.00;53.20
35497;DHT22;21609;49.298;6.844;2023-04-24T11:58:45;18.00;53.30
35497;DHT22;21609;49.298;6.844;2023-04-24T12:01:11;18.10;53.30
35497;DHT22;21609;49.298;6.844;2023-04-24T12:03:37;18.10;53.20
35497;DHT22;21609;49.298;6.844;2023-04-24T12:06:06;18.10;53.30
35497;DHT22;21609;49.298;6.844;2023-04-24T12:08:35;18.20;53.40
35497;DHT22;21609;49.298;6.844;2023-04-24T12:11:01;18.20;53.30
35497;DHT22;21609;49.298;6.844;2023-04-24T12:13:27;18.20;53.60
35497;DHT22;21609;49.298;6.844;2023-04-24T12:15:53;18.20;53.80
35497;DHT22;21609;49.298;6.844;2023-04-24T12:18:21;18.20;53.90
35497;DHT22;21609;49.298;6.844;2023-04-24T12:20:47;18.20;53.90
35497;DHT22;21609;49.298;6.844;2023-04-24T12:23:12;18.30;53.80
35497;DHT22;21609;49.298;6.844;2023-04-24T12:25:38;18.30;53.80
35497;DHT22;21609;49.298;6.844;2023-04-24T12:30:35;18.30;53.80
35497;DHT22;21609;49.298;6.844;2023-04-24T12:33:03;18.30;53.70
35497;DHT22;21609;49.298;6.844;2023-04-24T12:35:30;18.30;53.70
35497;DHT22;21609;49.298;6.844;2023-04-24T12:38:07;18.30;53.80
35497;DHT22;21609;49.298;6.844;2023-04-24T12:40:33;18.30;53.80
35497;DHT22;21609;49.298;6.844;2023-04-24T12:42:59;18.30;53.80
35497;DHT22;21609;49.298;6.844;2023-04-24T12:45:24;18.30;53.70
35497;DHT22;21609;49.298;6.844;2023-04-24T12:47:50;18.30;53.60
35497;DHT22;21609;49.298;6.844;2023-04-24T12:50:16;18.30;53.60
35497;DHT22;21609;49.298;6.844;2023-04-24T12:52:43;18.30;53.60
35497;DHT22;21609;49.298;6.844;2023-04-24T12:55:09;18.30;53.60
35497;DHT22;21609;49.298;6.844;2023-04-24T12:57:36;18.30;53.70
35497;DHT22;21609;49.298;6.844;2023-04-24T13:00:03;18.20;53.70
35497;DHT22;21609;49.298;6.844;2023-04-24T13:02:30;18.30;53.80
35497;DHT22;21609;49.298;6.844;2023-04-24T13:04:57;18.30;53.60
35497;DHT22;21609;49.298;6.844;2023-04-24T13:07:23;18.40;53.50
35497;DHT22;21609;49.298;6.844;2023-04-24T13:09:50;18.40;53.40
35497;DHT22;21609;49.298;6.844;2023-04-24T13:12:16;18.60;53.30
35497;DHT22;21609;49.298;6.844;2023-04-24T13:14:42;18.70;53.00
35497;DHT22;21609;49.298;6.844;2023-04-24T13:17:07;18.90;53.00
35497;DHT22;21609;49.298;6.844;2023-04-24T13:19:38;19.00;52.70
35497;DHT22;21609;49.298;6.844;2023-04-24T13:22:04;19.10;52.50
35497;DHT22;21609;49.298;6.844;2023-04-24T13:24:30;19.20;52.90
35497;DHT22;21609;49.298;6.844;2023-04-24T13:26:56;19.20;52.30
35497;DHT22;21609;49.298;6.844;2023-04-24T13:29:22;19.20;52.40
35497;DHT22;21609;49.298;6.844;2023-04-24T13:31:50;19.20;52.40
35497;DHT22;21609;49.298;6.844;2023-04-24T13:34:15;19.20;52.50
35497;DHT22;21609;49.298;6.844;2023-04-24T13:36:41;19.20;52.60
35497;DHT22;21609;49.298;6.844;2023-04-24T13:39:07;19.20;52.60
35497;DHT22;21609;49.298;6.844;2023-04-24T13:41:33;19.20;53.20
35497;DHT22;21609;49.298;6.844;2023-04-24T13:43:59;19.20;52.60
35497;DHT22;21609;49.298;6.844;2023-04-24T13:46:25;19.30;52.60
35497;DHT22;21609;49.298;6.844;2023-04-24T13:48:51;19.30;52.60
35497;DHT22;21609;49.298;6.844;2023-04-24T13:51:17;19.20;52.50
35497;DHT22;21609;49.298;6.844;2023-04-24T13:53:42;19.30;52.50
35497;DHT22;21609;49.298;6.844;2023-04-24T13:56:08;19.40;52.50
35497;DHT22;21609;49.298;6.844;2023-04-24T13:58:35;19.40;52.50
35497;DHT22;21609;49.298;6.844;2023-04-24T14:01:02;19.40;52.50
35497;DHT22;21609;49.298;6.844;2023-04-24T14:03:28;19.40;52.40
35497;DHT22;21609;49.298;6.844;2023-04-24T14:05:54;19.40;52.60
35497;DHT22;21609;49.298;6.844;2023-04-24T14:08:19;19.40;52.50
35497;DHT22;21609;49.298;6.844;2023-04-24T14:10:45;19.40;52.70
35497;DHT22;21609;49.298;6.844;2023-04-24T14:13:11;19.40;53.00
35497;DHT22;21609;49.298;6.844;2023-04-24T14:15:36;19.40;52.80
35497;DHT22;21609;49.298;6.844;2023-04-24T14:18:03;19.40;53.20
35497;DHT22;21609;49.298;6.844;2023-04-24T14:20:29;19.50;53.10
35497;DHT22;21609;49.298;6.844;2023-04-24T14:22:54;19.50;52.90
35497;DHT22;21609;49.298;6.844;2023-04-24T14:25:20;19.50;52.80
35497;DHT22;21609;49.298;6.844;2023-04-24T14:27:47;19.50;52.70
35497;DHT22;21609;49.298;6.844;2023-04-24T14:30:13;19.60;52.80
35497;DHT22;21609;49.298;6.844;2023-04-24T14:32:40;19.60;52.60
35497;DHT22;21609;49.298;6.844;2023-04-24T14:35:06;19.60;52.60
35497;DHT22;21609;49.298;6.844;2023-04-24T14:37:32;19.60;52.70
35497;DHT22;21609;49.298;6.844;2023-04-24T14:39:58;19.60;52.60
35497;DHT22;21609;49.298;6.844;2023-04-24T14:42:24;19.60;52.50
35497;DHT22;21609;49.298;6.844;2023-04-24T14:44:50;19.60;52.50
35497;DHT22;21609;49.298;6.844;2023-04-24T14:47:16;19.70;52.60
35497;DHT22;21609;49.298;6.844;2023-04-24T14:49:47;19.70;52.50
35497;DHT22;21609;49.298;6.844;2023-04-24T14:52:13;19.70;52.40
35497;DHT22;21609;49.298;6.844;2023-04-24T14:54:38;19.70;52.70
35497;DHT22;21609;49.298;6.844;2023-04-24T14:57:04;19.70;52.50
35497;DHT22;21609;49.298;6.844;2023-04-24T14:59:29;19.80;52.40
35497;DHT22;21609;49.298;6.844;2023-04-24T15:01:56;19.80;52.60
35497;DHT22;21609;49.298;6.844;2023-04-24T15:04:26;19.80;52.50
35497;DHT22;21609;49.298;6.844;2023-04-24T15:06:52;19.80;52.90
35497;DHT22;21609;49.298;6.844;2023-04-24T15:09:19;19.80;52.40
35497;DHT22;21609;49.298;6.844;2023-04-24T15:11:45;19.80;52.50
35497;DHT22;21609;49.298;6.844;2023-04-24T15:14:11;19.80;52.50
35497;DHT22;21609;49.298;6.844;2023-04-24T15:16:40;19.90;52.40
35497;DHT22;21609;49.298;6.844;2023-04-24T15:19:05;19.90;52.40
35497;DHT22;21609;49.298;6.844;2023-04-24T15:21:31;19.90;52.20
35497;DHT22;21609;49.298;6.844;2023-04-24T15:23:57;19.90;52.10
35497;DHT22;21609;49.298;6.844;2023-04-24T15:26:23;19.90;52.30
35497;DHT22;21609;49.298;6.844;2023-04-24T15:28:49;19.90;52.20
35497;DHT22;21609;49.298;6.844;2023-04-24T15:31:14;19.90;52.10
35497;DHT22;21609;49.298;6.844;2023-04-24T15:33:40;20.00;52.10
35497;DHT22;21609;49.298;6.844;2023-04-24T15:36:06;19.90;52.00